sensor_id;sensor_type;location;lat;lon;timestamp;P1;durP1;ratioP1;P2;durP2;ratioP2
25153;SDS011;47555;51.038;6.280;2023-05-07T00:02:23;22.83;;;14.38;;
25153;SDS011;47555;51.038;6.280;2023-05-07T00:04:48;18.77;;;13.23;;
25153;SDS011;47555;51.038;6.280;2023-05-07T00:07:14;22.67;;;14.52;;
25153;SDS011;47555;51.038;6.280;2023-05-07T00:09:40;22.05;;;14.32;;
25153;SDS011;47555;51.038;6.280;2023-05-07T00:12:06;20.92;;;13.57;;
25153;SDS011;47555;51.038;6.280;2023-05-07T00:14:32;24.10;;;14.23;;
25153;SDS011;47555;51.038;6.280;2023-05-07T00:16:57;23.45;;;14.38;;
25153;SDS011;47555;51.038;6.280;2023-05-07T00:19:23;21.10;;;15.05;;
25153;SDS011;47555;51.038;6.280;2023-05-07T00:28:21;20.15;;;13.40;;
25153;SDS011;47555;51.038;6.280;2023-05-07T00:30:46;22.67;;;14.90;;
25153;SDS011;47555;51.038;6.280;2023-05-07T00:33:12;21.85;;;14.50;;
25153;SDS011;47555;51.038;6.280;2023-05-07T00:35:37;21.77;;;15.27;;
25153;SDS011;47555;51.038;6.280;2023-05-07T00:38:03;24.88;;;15.90;;
25153;SDS011;47555;51.038;6.280;2023-05-07T00:40:29;21.30;;;14.77;;
25153;SDS011;47555;51.038;6.280;2023-05-07T00:42:54;21.95;;;14.23;;
25153;SDS011;47555;51.038;6.280;2023-05-07T00:45:22;21.75;;;15.07;;
25153;SDS011;47555;51.038;6.280;2023-05-07T00:47:55;20.75;;;12.82;;
25153;SDS011;47555;51.038;6.280;2023-05-07T00:50:23;22.85;;;14.02;;
25153;SDS011;47555;51.038;6.280;2023-05-07T00:52:50;21.83;;;13.60;;
25153;SDS011;47555;51.038;6.280;2023-05-07T00:55:16;21.55;;;15.20;;
25153;SDS011;47555;51.038;6.280;2023-05-07T00:57:42;20.08;;;14.38;;
25153;SDS011;47555;51.038;6.280;2023-05-07T01:00:08;24.73;;;15.70;;
25153;SDS011;47555;51.038;6.280;2023-05-07T01:02:35;25.67;;;15.27;;
25153;SDS011;47555;51.038;6.280;2023-05-07T01:05:01;20.27;;;13.90;;
25153;SDS011;47555;51.038;6.280;2023-05-07T01:07:28;20.52;;;14.60;;
25153;SDS011;47555;51.038;6.280;2023-05-07T01:09:55;21.40;;;13.43;;
25153;SDS011;47555;51.038;6.280;2023-05-07T01:12:21;22.85;;;14.27;;
25153;SDS011;47555;51.038;6.280;2023-05-07T01:14:47;21.17;;;15.27;;
25153;SDS011;47555;51.038;6.280;2023-05-07T01:17:14;20.98;;;13.77;;
25153;SDS011;47555;51.038;6.280;2023-05-07T01:19:40;19.73;;;13.80;;
25153;SDS011;47555;51.038;6.280;2023-05-07T01:22:10;25.50;;;15.77;;
25153;SDS011;47555;51.038;6.280;2023-05-07T01:24:40;19.65;;;13.80;;
25153;SDS011;47555;51.038;6.280;2023-05-07T01:27:06;19.83;;;14.82;;
25153;SDS011;47555;51.038;6.280;2023-05-07T01:29:31;21.70;;;14.00;;
25153;SDS011;47555;51.038;6.280;2023-05-07T01:31:58;23.52;;;15.00;;
25153;SDS011;47555;51.038;6.280;2023-05-07T01:34:25;18.58;;;12.93;;
25153;SDS011;47555;51.038;6.280;2023-05-07T01:36:53;22.30;;;15.38;;
25153;SDS011;47555;51.038;6.280;2023-05-07T01:39:20;19.70;;;13.80;;
25153;SDS011;47555;51.038;6.280;2023-05-07T01:41:48;19.63;;;13.75;;
25153;SDS011;47555;51.038;6.280;2023-05-07T01:44:14;19.75;;;14.13;;
25153;SDS011;47555;51.038;6.280;2023-05-07T01:46:40;15.98;;;12.15;;
25153;SDS011;47555;51.038;6.280;2023-05-07T01:49:05;20.05;;;14.18;;
25153;SDS011;47555;51.038;6.280;2023-05-07T01:51:31;22.73;;;14.32;;
25153;SDS011;47555;51.038;6.280;2023-05-07T01:53:57;19.65;;;13.57;;
25153;SDS011;47555;51.038;6.280;2023-05-07T01:56:23;21.70;;;14.40;;
25153;SDS011;47555;51.038;6.280;2023-05-07T01:58:50;23.88;;;14.55;;
25153;SDS011;47555;51.038;6.280;2023-05-07T02:01:16;22.05;;;15.13;;
25153;SDS011;47555;51.038;6.280;2023-05-07T02:03:43;20.02;;;14.43;;
25153;SDS011;47555;51.038;6.280;2023-05-07T02:06:08;24.13;;;14.73;;
25153;SDS011;47555;51.038;6.280;2023-05-07T02:08:34;22.63;;;15.30;;
25153;SDS011;47555;51.038;6.280;2023-05-07T02:11:00;19.70;;;12.65;;
25153;SDS011;47555;51.038;6.280;2023-05-07T02:13:26;20.92;;;14.07;;
25153;SDS011;47555;51.038;6.280;2023-05-07T02:15:56;21.63;;;14.53;;
25153;SDS011;47555;51.038;6.280;2023-05-07T02:18:22;23.23;;;14.25;;
25153;SDS011;47555;51.038;6.280;2023-05-07T02:20:48;21.70;;;14.13;;
25153;SDS011;47555;51.038;6.280;2023-05-07T02:23:13;24.98;;;15.10;;
25153;SDS011;47555;51.038;6.280;2023-05-07T02:25:39;19.63;;;12.75;;
25153;SDS011;47555;51.038;6.280;2023-05-07T02:28:04;23.40;;;13.93;;
25153;SDS011;47555;51.038;6.280;2023-05-07T02:30:30;20.92;;;14.40;;
25153;SDS011;47555;51.038;6.280;2023-05-07T02:32:55;23.48;;;14.73;;
25153;SDS011;47555;51.038;6.280;2023-05-07T02:35:21;25.45;;;15.02;;
25153;SDS011;47555;51.038;6.280;2023-05-07T02:37:46;22.38;;;14.40;;
25153;SDS011;47555;51.038;6.280;2023-05-07T02:40:12;27.55;;;15.10;;
25153;SDS011;47555;51.038;6.280;2023-05-07T02:42:37;23.00;;;13.48;;
25153;SDS011;47555;51.038;6.280;2023-05-07T02:45:03;25.05;;;14.13;;
25153;SDS011;47555;51.038;6.280;2023-05-07T02:47:29;22.80;;;14.00;;
25153;SDS011;47555;51.038;6.280;2023-05-07T02:49:54;23.10;;;12.63;;
25153;SDS011;47555;51.038;6.280;2023-05-07T02:52:20;29.02;;;15.90;;
25153;SDS011;47555;51.038;6.280;2023-05-07T02:54:46;24.67;;;14.63;;
25153;SDS011;47555;51.038;6.280;2023-05-07T02:57:11;28.75;;;14.50;;
25153;SDS011;47555;51.038;6.280;2023-05-07T02:59:37;27.60;;;14.18;;
25153;SDS011;47555;51.038;6.280;2023-05-07T03:02:03;25.30;;;14.20;;
25153;SDS011;47555;51.038;6.280;2023-05-07T03:04:28;24.38;;;14.25;;
25153;SDS011;47555;51.038;6.280;2023-05-07T03:06:54;24.63;;;12.38;;
25153;SDS011;47555;51.038;6.280;2023-05-07T03:09:22;23.23;;;12.27;;
25153;SDS011;47555;51.038;6.280;2023-05-07T03:11:47;19.73;;;10.88;;
25153;SDS011;47555;51.038;6.280;2023-05-07T03:14:13;24.50;;;14.10;;
25153;SDS011;47555;51.038;6.280;2023-05-07T03:16:39;21.83;;;12.90;;
25153;SDS011;47555;51.038;6.280;2023-05-07T03:19:05;23.95;;;12.82;;
25153;SDS011;47555;51.038;6.280;2023-05-07T03:21:30;25.92;;;14.23;;
25153;SDS011;47555;51.038;6.280;2023-05-07T03:23:58;25.52;;;14.90;;
25153;SDS011;47555;51.038;6.280;2023-05-07T03:26:24;26.33;;;13.95;;
25153;SDS011;47555;51.038;6.280;2023-05-07T03:28:50;26.10;;;13.63;;
25153;SDS011;47555;51.038;6.280;2023-05-07T03:31:15;23.15;;;13.60;;
25153;SDS011;47555;51.038;6.280;2023-05-07T03:33:54;23.02;;;13.25;;
25153;SDS011;47555;51.038;6.280;2023-05-07T03:36:21;23.63;;;12.90;;
25153;SDS011;47555;51.038;6.280;2023-05-07T03:38:47;24.27;;;12.90;;
25153;SDS011;47555;51.038;6.280;2023-05-07T03:41:13;23.77;;;14.10;;
25153;SDS011;47555;51.038;6.280;2023-05-07T03:43:39;28.58;;;13.93;;
25153;SDS011;47555;51.038;6.280;2023-05-07T03:46:05;23.85;;;13.07;;
25153;SDS011;47555;51.038;6.280;2023-05-07T03:48:30;23.33;;;13.23;;
25153;SDS011;47555;51.038;6.280;2023-05-07T03:50:57;24.95;;;13.60;;
25153;SDS011;47555;51.038;6.280;2023-05-07T03:53:23;25.63;;;13.63;;
25153;SDS011;47555;51.038;6.280;2023-05-07T03:55:48;27.08;;;13.80;;
25153;SDS011;47555;51.038;6.280;2023-05-07T03:58:14;24.90;;;12.98;;
25153;SDS011;47555;51.038;6.280;2023-05-07T04:00:40;21.90;;;12.40;;
25153;SDS011;47555;51.038;6.280;2023-05-07T04:03:06;25.67;;;12.10;;
25153;SDS011;47555;51.038;6.280;2023-05-07T04:05:31;23.85;;;13.13;;
25153;SDS011;47555;51.038;6.280;2023-05-07T04:08:00;22.08;;;13.25;;
25153;SDS011;47555;51.038;6.280;2023-05-07T04:10:27;21.55;;;11.60;;
25153;SDS011;47555;51.038;6.280;2023-05-07T04:12:54;21.00;;;12.85;;
25153;SDS011;47555;51.038;6.280;2023-05-07T04:15:19;23.98;;;12.15;;
25153;SDS011;47555;51.038;6.280;2023-05-07T04:17:45;26.30;;;13.73;;
25153;SDS011;47555;51.038;6.280;2023-05-07T04:20:14;23.92;;;11.25;;
25153;SDS011;47555;51.038;6.280;2023-05-07T04:22:41;22.95;;;11.15;;
25153;SDS011;47555;51.038;6.280;2023-05-07T04:25:07;21.38;;;12.50;;
25153;SDS011;47555;51.038;6.280;2023-05-07T04:27:34;21.83;;;11.85;;
25153;SDS011;47555;51.038;6.280;2023-05-07T04:29:59;24.95;;;14.52;;
25153;SDS011;47555;51.038;6.280;2023-05-07T04:32:25;20.48;;;11.65;;
25153;SDS011;47555;51.038;6.280;2023-05-07T04:34:51;25.50;;;13.32;;
25153;SDS011;47555;51.038;6.280;2023-05-07T04:37:17;24.08;;;13.52;;
25153;SDS011;47555;51.038;6.280;2023-05-07T04:39:42;21.98;;;12.82;;
25153;SDS011;47555;51.038;6.280;2023-05-07T04:42:08;22.90;;;12.35;;
25153;SDS011;47555;51.038;6.280;2023-05-07T04:44:34;21.02;;;11.02;;
25153;SDS011;47555;51.038;6.280;2023-05-07T04:47:00;24.65;;;12.55;;
25153;SDS011;47555;51.038;6.280;2023-05-07T04:49:25;21.75;;;11.82;;
25153;SDS011;47555;51.038;6.280;2023-05-07T04:51:51;22.13;;;11.80;;
25153;SDS011;47555;51.038;6.280;2023-05-07T04:54:17;20.50;;;10.95;;
25153;SDS011;47555;51.038;6.280;2023-05-07T04:56:42;21.63;;;10.65;;
25153;SDS011;47555;51.038;6.280;2023-05-07T04:59:08;18.33;;;9.57;;
25153;SDS011;47555;51.038;6.280;2023-05-07T05:01:33;22.75;;;11.68;;
25153;SDS011;47555;51.038;6.280;2023-05-07T05:03:59;19.40;;;10.32;;
25153;SDS011;47555;51.038;6.280;2023-05-07T05:06:25;22.08;;;11.82;;
25153;SDS011;47555;51.038;6.280;2023-05-07T05:08:50;25.88;;;12.35;;
25153;SDS011;47555;51.038;6.280;2023-05-07T05:11:16;21.73;;;10.73;;
25153;SDS011;47555;51.038;6.280;2023-05-07T05:13:42;24.30;;;12.23;;
25153;SDS011;47555;51.038;6.280;2023-05-07T05:16:07;24.80;;;12.32;;
25153;SDS011;47555;51.038;6.280;2023-05-07T05:18:33;28.17;;;13.45;;
25153;SDS011;47555;51.038;6.280;2023-05-07T05:20:58;26.00;;;12.38;;
25153;SDS011;47555;51.038;6.280;2023-05-07T05:23:24;22.63;;;12.07;;
25153;SDS011;47555;51.038;6.280;2023-05-07T05:25:49;22.77;;;12.38;;
25153;SDS011;47555;51.038;6.280;2023-05-07T05:28:15;22.42;;;11.65;;
25153;SDS011;47555;51.038;6.280;2023-05-07T05:30:40;22.23;;;13.13;;
25153;SDS011;47555;51.038;6.280;2023-05-07T05:33:06;21.77;;;10.68;;
25153;SDS011;47555;51.038;6.280;2023-05-07T05:35:31;20.92;;;11.65;;
25153;SDS011;47555;51.038;6.280;2023-05-07T05:37:57;21.30;;;11.13;;
25153;SDS011;47555;51.038;6.280;2023-05-07T05:40:22;21.27;;;11.30;;
25153;SDS011;47555;51.038;6.280;2023-05-07T05:42:48;22.23;;;10.75;;
25153;SDS011;47555;51.038;6.280;2023-05-07T05:45:13;20.42;;;11.70;;
25153;SDS011;47555;51.038;6.280;2023-05-07T05:47:39;22.08;;;10.95;;
25153;SDS011;47555;51.038;6.280;2023-05-07T05:50:06;20.83;;;10.75;;
25153;SDS011;47555;51.038;6.280;2023-05-07T05:52:32;20.23;;;10.88;;
25153;SDS011;47555;51.038;6.280;2023-05-07T05:54:57;18.17;;;10.15;;
25153;SDS011;47555;51.038;6.280;2023-05-07T05:57:23;17.15;;;9.13;;
25153;SDS011;47555;51.038;6.280;2023-05-07T05:59:51;17.52;;;9.82;;
25153;SDS011;47555;51.038;6.280;2023-05-07T06:02:17;16.15;;;9.50;;
25153;SDS011;47555;51.038;6.280;2023-05-07T06:04:42;17.02;;;9.68;;
25153;SDS011;47555;51.038;6.280;2023-05-07T06:07:08;13.68;;;9.30;;
25153;SDS011;47555;51.038;6.280;2023-05-07T06:09:34;12.73;;;7.53;;
25153;SDS011;47555;51.038;6.280;2023-05-07T06:11:59;13.45;;;8.73;;
25153;SDS011;47555;51.038;6.280;2023-05-07T06:14:25;12.35;;;7.20;;
25153;SDS011;47555;51.038;6.280;2023-05-07T06:16:50;12.93;;;7.10;;
25153;SDS011;47555;51.038;6.280;2023-05-07T06:19:16;12.48;;;6.82;;
25153;SDS011;47555;51.038;6.280;2023-05-07T06:21:43;8.75;;;6.35;;
25153;SDS011;47555;51.038;6.280;2023-05-07T06:24:08;11.32;;;6.80;;
25153;SDS011;47555;51.038;6.280;2023-05-07T06:26:34;12.88;;;7.15;;
25153;SDS011;47555;51.038;6.280;2023-05-07T06:28:59;11.73;;;6.85;;
25153;SDS011;47555;51.038;6.280;2023-05-07T06:31:28;12.73;;;7.65;;
25153;SDS011;47555;51.038;6.280;2023-05-07T06:33:56;9.57;;;6.30;;
25153;SDS011;47555;51.038;6.280;2023-05-07T06:36:22;11.20;;;7.00;;
25153;SDS011;47555;51.038;6.280;2023-05-07T06:38:48;12.25;;;7.22;;
25153;SDS011;47555;51.038;6.280;2023-05-07T06:41:13;11.32;;;6.72;;
25153;SDS011;47555;51.038;6.280;2023-05-07T06:43:39;12.20;;;6.55;;
25153;SDS011;47555;51.038;6.280;2023-05-07T06:46:04;11.18;;;6.32;;
25153;SDS011;47555;51.038;6.280;2023-05-07T06:48:30;11.38;;;7.10;;
25153;SDS011;47555;51.038;6.280;2023-05-07T06:50:56;11.30;;;5.97;;
25153;SDS011;47555;51.038;6.280;2023-05-07T06:53:22;8.75;;;5.90;;
25153;SDS011;47555;51.038;6.280;2023-05-07T06:55:48;10.05;;;6.47;;
25153;SDS011;47555;51.038;6.280;2023-05-07T06:58:14;10.63;;;6.53;;
25153;SDS011;47555;51.038;6.280;2023-05-07T07:00:39;10.55;;;6.07;;
25153;SDS011;47555;51.038;6.280;2023-05-07T07:03:05;9.20;;;6.35;;
25153;SDS011;47555;51.038;6.280;2023-05-07T07:05:31;9.75;;;6.25;;
25153;SDS011;47555;51.038;6.280;2023-05-07T07:07:57;10.18;;;6.93;;
25153;SDS011;47555;51.038;6.280;2023-05-07T07:10:23;8.85;;;6.30;;
25153;SDS011;47555;51.038;6.280;2023-05-07T07:12:48;10.80;;;7.10;;
25153;SDS011;47555;51.038;6.280;2023-05-07T07:15:15;12.20;;;6.95;;
25153;SDS011;47555;51.038;6.280;2023-05-07T07:17:40;11.63;;;6.65;;
25153;SDS011;47555;51.038;6.280;2023-05-07T07:20:06;10.02;;;6.50;;
25153;SDS011;47555;51.038;6.280;2023-05-07T07:22:32;9.65;;;6.30;;
25153;SDS011;47555;51.038;6.280;2023-05-07T07:24:57;11.85;;;6.60;;
25153;SDS011;47555;51.038;6.280;2023-05-07T07:27:23;11.30;;;6.57;;
25153;SDS011;47555;51.038;6.280;2023-05-07T07:29:49;11.30;;;6.78;;
25153;SDS011;47555;51.038;6.280;2023-05-07T07:32:15;9.38;;;6.95;;
25153;SDS011;47555;51.038;6.280;2023-05-07T07:34:40;9.23;;;6.25;;
25153;SDS011;47555;51.038;6.280;2023-05-07T07:37:06;9.95;;;6.53;;
25153;SDS011;47555;51.038;6.280;2023-05-07T07:39:32;7.93;;;6.07;;
25153;SDS011;47555;51.038;6.280;2023-05-07T07:41:58;8.00;;;5.20;;
25153;SDS011;47555;51.038;6.280;2023-05-07T07:44:23;6.75;;;5.88;;
25153;SDS011;47555;51.038;6.280;2023-05-07T07:46:49;10.63;;;6.10;;
25153;SDS011;47555;51.038;6.280;2023-05-07T07:49:15;8.75;;;6.40;;
25153;SDS011;47555;51.038;6.280;2023-05-07T07:51:41;10.20;;;6.35;;
25153;SDS011;47555;51.038;6.280;2023-05-07T07:54:06;8.30;;;6.32;;
25153;SDS011;47555;51.038;6.280;2023-05-07T07:56:32;9.65;;;6.05;;
25153;SDS011;47555;51.038;6.280;2023-05-07T07:59:01;9.68;;;6.05;;
25153;SDS011;47555;51.038;6.280;2023-05-07T08:01:29;7.80;;;5.78;;
25153;SDS011;47555;51.038;6.280;2023-05-07T08:03:55;7.80;;;5.35;;
25153;SDS011;47555;51.038;6.280;2023-05-07T08:06:20;9.18;;;5.32;;
25153;SDS011;47555;51.038;6.280;2023-05-07T08:08:46;9.30;;;6.22;;
25153;SDS011;47555;51.038;6.280;2023-05-07T08:11:11;6.45;;;5.22;;
25153;SDS011;47555;51.038;6.280;2023-05-07T08:13:37;6.40;;;4.95;;
25153;SDS011;47555;51.038;6.280;2023-05-07T08:16:04;8.57;;;5.70;;
25153;SDS011;47555;51.038;6.280;2023-05-07T08:18:29;7.38;;;5.40;;
25153;SDS011;47555;51.038;6.280;2023-05-07T08:20:55;7.95;;;5.75;;
25153;SDS011;47555;51.038;6.280;2023-05-07T08:23:21;5.82;;;4.70;;
25153;SDS011;47555;51.038;6.280;2023-05-07T08:25:46;7.75;;;4.80;;
25153;SDS011;47555;51.038;6.280;2023-05-07T08:28:13;5.32;;;4.65;;
25153;SDS011;47555;51.038;6.280;2023-05-07T08:30:38;6.18;;;3.88;;
25153;SDS011;47555;51.038;6.280;2023-05-07T08:33:04;6.93;;;4.20;;
25153;SDS011;47555;51.038;6.280;2023-05-07T08:35:29;5.60;;;4.32;;
25153;SDS011;47555;51.038;6.280;2023-05-07T08:37:55;4.13;;;3.70;;
25153;SDS011;47555;51.038;6.280;2023-05-07T08:40:22;4.22;;;3.67;;
25153;SDS011;47555;51.038;6.280;2023-05-07T08:42:51;4.18;;;3.40;;
25153;SDS011;47555;51.038;6.280;2023-05-07T08:45:18;6.93;;;3.78;;
25153;SDS011;47555;51.038;6.280;2023-05-07T08:47:46;4.43;;;4.03;;
25153;SDS011;47555;51.038;6.280;2023-05-07T08:50:15;5.07;;;3.78;;
25153;SDS011;47555;51.038;6.280;2023-05-07T08:52:41;4.40;;;3.58;;
25153;SDS011;47555;51.038;6.280;2023-05-07T08:55:07;4.13;;;3.30;;
25153;SDS011;47555;51.038;6.280;2023-05-07T08:57:33;4.68;;;3.97;;
25153;SDS011;47555;51.038;6.280;2023-05-07T08:59:59;4.85;;;3.63;;
25153;SDS011;47555;51.038;6.280;2023-05-07T09:02:25;3.95;;;3.38;;
25153;SDS011;47555;51.038;6.280;2023-05-07T09:04:50;5.53;;;3.33;;
25153;SDS011;47555;51.038;6.280;2023-05-07T09:07:16;3.97;;;3.33;;
25153;SDS011;47555;51.038;6.280;2023-05-07T09:09:43;5.68;;;3.60;;
25153;SDS011;47555;51.038;6.280;2023-05-07T09:12:09;5.65;;;3.88;;
25153;SDS011;47555;51.038;6.280;2023-05-07T09:14:35;6.32;;;3.90;;
25153;SDS011;47555;51.038;6.280;2023-05-07T09:17:01;3.92;;;3.35;;
25153;SDS011;47555;51.038;6.280;2023-05-07T09:19:26;3.97;;;3.00;;
25153;SDS011;47555;51.038;6.280;2023-05-07T09:22:02;2.92;;;2.58;;
25153;SDS011;47555;51.038;6.280;2023-05-07T09:24:29;3.85;;;3.00;;
25153;SDS011;47555;51.038;6.280;2023-05-07T09:26:59;2.85;;;2.45;;
25153;SDS011;47555;51.038;6.280;2023-05-07T09:29:26;3.00;;;2.70;;
25153;SDS011;47555;51.038;6.280;2023-05-07T09:31:53;3.15;;;2.40;;
25153;SDS011;47555;51.038;6.280;2023-05-07T09:34:19;2.88;;;2.35;;
25153;SDS011;47555;51.038;6.280;2023-05-07T09:36:45;2.50;;;2.30;;
25153;SDS011;47555;51.038;6.280;2023-05-07T09:39:10;2.80;;;2.50;;
25153;SDS011;47555;51.038;6.280;2023-05-07T09:41:46;3.08;;;2.00;;
25153;SDS011;47555;51.038;6.280;2023-05-07T09:44:14;4.38;;;2.45;;
25153;SDS011;47555;51.038;6.280;2023-05-07T09:46:41;3.95;;;2.38;;
25153;SDS011;47555;51.038;6.280;2023-05-07T09:49:11;2.47;;;2.28;;
25153;SDS011;47555;51.038;6.280;2023-05-07T09:51:47;2.88;;;2.42;;
25153;SDS011;47555;51.038;6.280;2023-05-07T09:54:14;3.65;;;2.97;;
25153;SDS011;47555;51.038;6.280;2023-05-07T09:56:41;5.20;;;3.20;;
25153;SDS011;47555;51.038;6.280;2023-05-07T09:59:08;3.90;;;3.53;;
25153;SDS011;47555;51.038;6.280;2023-05-07T10:01:37;6.68;;;4.20;;
25153;SDS011;47555;51.038;6.280;2023-05-07T10:04:05;5.07;;;3.03;;
25153;SDS011;47555;51.038;6.280;2023-05-07T10:06:33;4.38;;;3.30;;
25153;SDS011;47555;51.038;6.280;2023-05-07T10:09:00;3.92;;;3.40;;
25153;SDS011;47555;51.038;6.280;2023-05-07T10:11:27;4.25;;;2.80;;
25153;SDS011;47555;51.038;6.280;2023-05-07T10:13:53;5.63;;;3.17;;
25153;SDS011;47555;51.038;6.280;2023-05-07T10:16:19;4.50;;;2.90;;
25153;SDS011;47555;51.038;6.280;2023-05-07T10:18:46;4.00;;;2.67;;
25153;SDS011;47555;51.038;6.280;2023-05-07T10:21:18;3.70;;;3.33;;
25153;SDS011;47555;51.038;6.280;2023-05-07T10:23:45;4.97;;;3.10;;
25153;SDS011;47555;51.038;6.280;2023-05-07T10:26:14;5.50;;;3.10;;
25153;SDS011;47555;51.038;6.280;2023-05-07T10:28:42;5.75;;;2.70;;
25153;SDS011;47555;51.038;6.280;2023-05-07T10:34:21;4.38;;;1.98;;
25153;SDS011;47555;51.038;6.280;2023-05-07T10:36:51;3.10;;;1.90;;
25153;SDS011;47555;51.038;6.280;2023-05-07T10:39:17;4.32;;;1.80;;
25153;SDS011;47555;51.038;6.280;2023-05-07T10:41:44;3.70;;;1.75;;
25153;SDS011;47555;51.038;6.280;2023-05-07T10:44:10;2.72;;;2.00;;
25153;SDS011;47555;51.038;6.280;2023-05-07T10:46:36;3.50;;;2.00;;
25153;SDS011;47555;51.038;6.280;2023-05-07T10:51:34;2.50;;;2.00;;
25153;SDS011;47555;51.038;6.280;2023-05-07T10:56:35;3.28;;;1.77;;
25153;SDS011;47555;51.038;6.280;2023-05-07T11:04:22;4.40;;;2.35;;
25153;SDS011;47555;51.038;6.280;2023-05-07T11:15:09;2.40;;;1.63;;
25153;SDS011;47555;51.038;6.280;2023-05-07T11:17:55;2.13;;;1.92;;
25153;SDS011;47555;51.038;6.280;2023-05-07T11:28:41;2.15;;;1.83;;
25153;SDS011;47555;51.038;6.280;2023-05-07T11:31:07;3.83;;;2.00;;
25153;SDS011;47555;51.038;6.280;2023-05-07T11:33:34;2.00;;;1.80;;
25153;SDS011;47555;51.038;6.280;2023-05-07T11:36:00;2.92;;;1.88;;
25153;SDS011;47555;51.038;6.280;2023-05-07T11:38:28;3.15;;;2.03;;
25153;SDS011;47555;51.038;6.280;2023-05-07T11:43:53;2.78;;;1.90;;
25153;SDS011;47555;51.038;6.280;2023-05-07T11:46:20;2.70;;;1.90;;
25153;SDS011;47555;51.038;6.280;2023-05-07T11:48:46;2.55;;;2.28;;
25153;SDS011;47555;51.038;6.280;2023-05-07T11:51:12;5.45;;;2.25;;
25153;SDS011;47555;51.038;6.280;2023-05-07T11:53:38;4.20;;;2.00;;
25153;SDS011;47555;51.038;6.280;2023-05-07T11:56:09;3.00;;;2.10;;
25153;SDS011;47555;51.038;6.280;2023-05-07T11:58:36;2.70;;;1.88;;
25153;SDS011;47555;51.038;6.280;2023-05-07T12:01:02;2.38;;;2.10;;
25153;SDS011;47555;51.038;6.280;2023-05-07T12:03:28;2.65;;;2.00;;
25153;SDS011;47555;51.038;6.280;2023-05-07T12:05:53;2.95;;;2.25;;
25153;SDS011;47555;51.038;6.280;2023-05-07T12:08:20;3.75;;;2.00;;
25153;SDS011;47555;51.038;6.280;2023-05-07T12:10:47;3.60;;;2.00;;
25153;SDS011;47555;51.038;6.280;2023-05-07T12:13:24;4.22;;;2.08;;
25153;SDS011;47555;51.038;6.280;2023-05-07T12:15:51;3.17;;;2.00;;
25153;SDS011;47555;51.038;6.280;2023-05-07T12:18:20;2.92;;;1.95;;
25153;SDS011;47555;51.038;6.280;2023-05-07T12:20:47;3.30;;;1.95;;
25153;SDS011;47555;51.038;6.280;2023-05-07T12:23:14;3.33;;;1.83;;
25153;SDS011;47555;51.038;6.280;2023-05-07T12:25:40;2.83;;;2.00;;
25153;SDS011;47555;51.038;6.280;2023-05-07T12:28:16;3.72;;;2.08;;
25153;SDS011;47555;51.038;6.280;2023-05-07T12:30:43;2.67;;;2.03;;
25153;SDS011;47555;51.038;6.280;2023-05-07T12:33:09;2.97;;;2.00;;
25153;SDS011;47555;51.038;6.280;2023-05-07T12:35:41;3.33;;;2.40;;
25153;SDS011;47555;51.038;6.280;2023-05-07T12:38:17;3.47;;;2.10;;
25153;SDS011;47555;51.038;6.280;2023-05-07T12:40:46;2.15;;;1.80;;
25153;SDS011;47555;51.038;6.280;2023-05-07T12:43:25;2.67;;;2.10;;
25153;SDS011;47555;51.038;6.280;2023-05-07T12:45:56;2.70;;;2.00;;
25153;SDS011;47555;51.038;6.280;2023-05-07T12:48:23;2.72;;;1.95;;
25153;SDS011;47555;51.038;6.280;2023-05-07T12:50:52;2.20;;;2.00;;
25153;SDS011;47555;51.038;6.280;2023-05-07T12:53:20;3.40;;;2.03;;
25153;SDS011;47555;51.038;6.280;2023-05-07T12:55:47;3.63;;;1.90;;
25153;SDS011;47555;51.038;6.280;2023-05-07T12:58:18;3.88;;;2.35;;
25153;SDS011;47555;51.038;6.280;2023-05-07T13:00:46;3.30;;;2.80;;
25153;SDS011;47555;51.038;6.280;2023-05-07T13:03:20;2.97;;;2.20;;
25153;SDS011;47555;51.038;6.280;2023-05-07T13:05:51;1.83;;;1.70;;
25153;SDS011;47555;51.038;6.280;2023-05-07T13:08:30;2.65;;;1.95;;
25153;SDS011;47555;51.038;6.280;2023-05-07T13:11:02;3.50;;;2.47;;
25153;SDS011;47555;51.038;6.280;2023-05-07T13:13:29;4.55;;;3.88;;
25153;SDS011;47555;51.038;6.280;2023-05-07T13:16:02;10.27;;;4.75;;
25153;SDS011;47555;51.038;6.280;2023-05-07T13:18:29;6.30;;;3.65;;
25153;SDS011;47555;51.038;6.280;2023-05-07T13:20:55;4.55;;;2.38;;
25153;SDS011;47555;51.038;6.280;2023-05-07T13:23:21;5.30;;;3.00;;
25153;SDS011;47555;51.038;6.280;2023-05-07T13:25:47;3.38;;;2.45;;
25153;SDS011;47555;51.038;6.280;2023-05-07T13:28:13;8.23;;;3.60;;
25153;SDS011;47555;51.038;6.280;2023-05-07T13:30:39;13.57;;;4.97;;
25153;SDS011;47555;51.038;6.280;2023-05-07T13:33:05;5.03;;;2.67;;
25153;SDS011;47555;51.038;6.280;2023-05-07T13:35:31;3.17;;;1.50;;
25153;SDS011;47555;51.038;6.280;2023-05-07T13:37:57;6.15;;;1.60;;
25153;SDS011;47555;51.038;6.280;2023-05-07T13:40:23;2.03;;;1.55;;
25153;SDS011;47555;51.038;6.280;2023-05-07T13:42:49;5.40;;;1.77;;
25153;SDS011;47555;51.038;6.280;2023-05-07T13:45:15;3.00;;;1.67;;
25153;SDS011;47555;51.038;6.280;2023-05-07T13:47:41;1.08;;;1.08;;
25153;SDS011;47555;51.038;6.280;2023-05-07T13:50:08;2.15;;;1.33;;
25153;SDS011;47555;51.038;6.280;2023-05-07T13:52:34;2.85;;;1.60;;
25153;SDS011;47555;51.038;6.280;2023-05-07T13:55:00;3.40;;;1.60;;
25153;SDS011;47555;51.038;6.280;2023-05-07T13:57:26;3.55;;;1.40;;
25153;SDS011;47555;51.038;6.280;2023-05-07T13:59:51;1.52;;;1.40;;
25153;SDS011;47555;51.038;6.280;2023-05-07T14:02:17;5.03;;;2.50;;
25153;SDS011;47555;51.038;6.280;2023-05-07T14:04:42;4.13;;;1.85;;
25153;SDS011;47555;51.038;6.280;2023-05-07T14:07:08;3.45;;;2.03;;
25153;SDS011;47555;51.038;6.280;2023-05-07T14:09:33;2.08;;;1.70;;
25153;SDS011;47555;51.038;6.280;2023-05-07T14:11:59;3.92;;;2.33;;
25153;SDS011;47555;51.038;6.280;2023-05-07T14:14:25;4.18;;;3.65;;
25153;SDS011;47555;51.038;6.280;2023-05-07T14:16:50;7.00;;;3.55;;
25153;SDS011;47555;51.038;6.280;2023-05-07T14:19:16;6.25;;;4.05;;
25153;SDS011;47555;51.038;6.280;2023-05-07T14:21:41;5.20;;;3.85;;
25153;SDS011;47555;51.038;6.280;2023-05-07T14:24:07;4.55;;;2.60;;
25153;SDS011;47555;51.038;6.280;2023-05-07T14:26:33;2.33;;;2.13;;
25153;SDS011;47555;51.038;6.280;2023-05-07T14:28:59;2.22;;;2.03;;
25153;SDS011;47555;51.038;6.280;2023-05-07T14:31:25;2.42;;;2.20;;
25153;SDS011;47555;51.038;6.280;2023-05-07T14:33:50;2.38;;;2.17;;
25153;SDS011;47555;51.038;6.280;2023-05-07T14:36:17;5.78;;;2.33;;
25153;SDS011;47555;51.038;6.280;2023-05-07T14:38:44;2.40;;;2.20;;
25153;SDS011;47555;51.038;6.280;2023-05-07T14:41:10;2.03;;;1.80;;
25153;SDS011;47555;51.038;6.280;2023-05-07T14:43:36;2.22;;;2.05;;
25153;SDS011;47555;51.038;6.280;2023-05-07T14:46:01;3.05;;;2.08;;
25153;SDS011;47555;51.038;6.280;2023-05-07T14:48:27;3.55;;;2.42;;
25153;SDS011;47555;51.038;6.280;2023-05-07T14:50:52;3.20;;;2.70;;
25153;SDS011;47555;51.038;6.280;2023-05-07T14:53:18;2.92;;;2.50;;
25153;SDS011;47555;51.038;6.280;2023-05-07T14:55:43;3.95;;;3.03;;
25153;SDS011;47555;51.038;6.280;2023-05-07T14:58:10;4.57;;;3.38;;
25153;SDS011;47555;51.038;6.280;2023-05-07T15:00:35;3.40;;;3.10;;
25153;SDS011;47555;51.038;6.280;2023-05-07T15:03:04;4.78;;;4.10;;
25153;SDS011;47555;51.038;6.280;2023-05-07T15:05:31;5.35;;;4.55;;
25153;SDS011;47555;51.038;6.280;2023-05-07T15:07:57;5.18;;;4.47;;
25153;SDS011;47555;51.038;6.280;2023-05-07T15:10:23;5.28;;;4.78;;
25153;SDS011;47555;51.038;6.280;2023-05-07T15:12:49;5.55;;;4.82;;